Time;durP1;ratioP1;P1;durP2;ratioP2;P2;SDS_P1;SDS_P2;PMS_P1;PMS_P2;Temp;Humidity;BMP_temperature;BMP_pressure;BME280_temperature;BME280_humidity;BME280_pressure;Samples;Min_cycle;Max_cycle;Signal;HPM_P1;HPM_P2
2022/11/22 00:00:41;;;;;;;26.07;5.33;;;;;;;12.40;94.91;99722.45;1784805;80;20932;-87
2022/11/22 00:03:08;;;;;;;22.22;5.72;;;;;;;12.41;94.91;99727.25;1785256;80;20884;-85
2022/11/22 00:05:34;;;;;;;23.60;5.17;;;;;;;12.41;94.96;99727.25;1784564;80;21115;-86
2022/11/22 00:08:01;;;;;;;20.45;5.25;;;;;;;12.41;95.00;99727.25;1783878;80;21022;-86
2022/11/22 00:10:28;;;;;;;23.12;5.15;;;;;;;12.41;95.01;99725.45;1787135;80;20915;-84
2022/11/22 00:12:55;;;;;;;19.40;5.20;;;;;;;12.41;95.08;99721.50;1786166;78;20885;-83
2022/11/22 00:15:22;;;;;;;18.70;4.62;;;;;;;12.42;95.19;99722.33;1784382;80;21003;-87
2022/11/22 00:17:50;;;;;;;18.65;4.58;;;;;;;12.44;95.23;99729.13;1784081;80;21803;-85
2022/11/22 00:20:16;;;;;;;19.90;6.72;;;;;;;12.45;95.20;99732.62;1784041;80;20872;-85
2022/11/22 00:22:44;;;;;;;16.97;4.42;;;;;;;12.47;95.18;99733.78;1784034;80;20896;-86
2022/11/22 00:25:13;;;;;;;24.75;6.22;;;;;;;12.49;95.13;99723.98;1784151;80;20971;-85
2022/11/22 00:27:41;;;;;;;15.90;4.30;;;;;;;12.51;95.09;99736.03;1783874;80;21042;-87
2022/11/22 00:30:08;;;;;;;17.73;4.42;;;;;;;12.51;95.03;99741.30;1784013;80;21131;-86
2022/11/22 00:32:36;;;;;;;24.95;4.45;;;;;;;12.53;94.99;99747.27;1784359;80;20888;-87
2022/11/22 00:35:04;;;;;;;16.65;4.37;;;;;;;12.54;94.94;99742.83;1784042;80;20924;-86
2022/11/22 00:37:31;;;;;;;17.10;4.33;;;;;;;12.54;94.88;99733.17;1784032;80;21026;-86
2022/11/22 00:39:59;;;;;;;21.75;6.35;;;;;;;12.55;94.89;99727.42;1784299;80;21425;-86
2022/11/22 00:42:26;;;;;;;21.12;5.70;;;;;;;12.57;94.90;99725.50;1784317;80;21329;-86
2022/11/22 00:44:54;;;;;;;20.17;5.72;;;;;;;12.56;94.96;99711.52;1784343;80;21691;-85
2022/11/22 00:47:22;;;;;;;33.13;5.35;;;;;;;12.58;94.94;99715.33;1784134;80;20971;-86
2022/11/22 00:49:50;;;;;;;20.68;4.70;;;;;;;12.58;95.00;99721.44;1783836;80;20967;-87
2022/11/22 00:52:16;;;;;;;15.85;5.37;;;;;;;12.58;95.12;99721.44;1784324;80;21488;-87
2022/11/22 00:54:44;;;;;;;16.55;5.10;;;;;;;12.59;95.17;99717.01;1784875;80;21090;-86
2022/11/22 00:57:10;;;;;;;21.68;5.37;;;;;;;12.60;95.25;99715.55;1784623;80;20991;-86
2022/11/22 00:59:37;;;;;;;20.45;5.65;;;;;;;12.60;95.26;99720.80;1785180;80;21503;-86
2022/11/22 01:02:03;;;;;;;22.48;4.65;;;;;;;12.58;95.35;99716.18;1784447;80;20920;-87
2022/11/22 01:04:30;;;;;;;25.70;4.15;;;;;;;12.58;95.48;99709.61;1784002;80;20982;-88
2022/11/22 01:06:57;;;;;;;19.40;4.42;;;;;;;12.58;95.56;99712.23;1784046;80;21214;-86
2022/11/22 01:09:24;;;;;;;20.45;5.45;;;;;;;12.57;95.66;99714.98;1781184;80;20936;-87
2022/11/22 01:11:51;;;;;;;16.32;5.80;;;;;;;12.56;95.83;99720.73;1775579;80;21445;-86
2022/11/22 01:14:18;;;;;;;15.88;4.20;;;;;;;12.56;95.97;99722.50;1775736;80;20873;-84
2022/11/22 01:16:46;;;;;;;23.42;4.42;;;;;;;12.54;96.20;99715.22;1775575;80;20924;-86
2022/11/22 01:19:13;;;;;;;24.70;4.33;;;;;;;12.53;96.33;99714.88;1775533;80;21143;-86
2022/11/22 01:21:42;;;;;;;24.77;5.17;;;;;;;12.53;96.48;99720.14;1775616;80;21318;-86
2022/11/22 01:24:08;;;;;;;17.65;4.40;;;;;;;12.51;96.63;99721.57;1776432;80;20863;-87
2022/11/22 01:26:36;;;;;;;21.50;6.25;;;;;;;12.52;96.84;99727.69;1775570;80;20974;-87
2022/11/22 01:29:03;;;;;;;15.88;4.70;;;;;;;12.51;96.89;99711.54;1776151;80;20933;-87
2022/11/22 01:31:30;;;;;;;20.75;5.22;;;;;;;12.51;96.95;99712.86;1777175;80;21839;-82
2022/11/22 01:33:57;;;;;;;22.62;5.65;;;;;;;12.50;97.03;99712.03;1778666;80;20845;-85
2022/11/22 01:36:25;;;;;;;22.87;4.62;;;;;;;12.49;97.13;99722.66;1778325;79;21006;-84
2022/11/22 01:38:52;;;;;;;20.08;5.42;;;;;;;12.47;97.19;99724.09;1776914;80;20896;-86
2022/11/22 01:41:19;;;;;;;22.70;5.00;;;;;;;12.46;97.29;99722.44;1779391;80;20928;-86
2022/11/22 01:43:46;;;;;;;18.77;4.90;;;;;;;12.43;97.45;99731.42;1776141;80;21245;-85
2022/11/22 01:46:36;;;;;;;21.17;5.40;;;;;;;12.42;97.64;99734.17;1776572;80;20971;-86
2022/11/22 01:49:12;;;;;;;23.65;6.60;;;;;;;12.39;97.83;99724.73;1775908;80;20984;-86
2022/11/22 01:51:43;;;;;;;19.35;4.95;;;;;;;12.38;97.96;99732.29;1775691;80;20951;-86
2022/11/22 01:54:16;;;;;;;20.77;4.65;;;;;;;12.38;98.22;99716.97;1753842;80;20880;-84
2022/11/22 01:56:46;;;;;;;26.17;5.30;;;;;;;12.37;98.33;99721.40;1775879;80;21148;-86
2022/11/22 01:59:16;;;;;;;19.92;4.78;;;;;;;12.36;98.39;99719.74;1775562;80;20991;-85
2022/11/22 02:01:44;;;;;;;20.85;5.20;;;;;;;12.37;98.68;99712.69;1775632;80;20932;-86
2022/11/22 02:04:13;;;;;;;18.85;4.70;;;;;;;12.36;98.76;99717.11;1775598;80;21032;-86
2022/11/22 02:07:04;;;;;;;17.98;4.75;;;;;;;12.35;98.86;99726.43;1775578;80;20936;-88
2022/11/22 02:09:30;;;;;;;21.30;5.22;;;;;;;12.33;98.92;99721.29;1776250;80;21244;-85
2022/11/22 02:12:00;;;;;;;18.37;5.70;;;;;;;12.32;98.93;99728.02;1776492;80;21355;-85
2022/11/22 02:14:27;;;;;;;19.45;5.83;;;;;;;12.31;98.96;99727.16;1754274;80;20857;-86
2022/11/22 02:16:55;;;;;;;26.77;5.08;;;;;;;12.30;99.09;99727.30;1775476;80;20944;-86
2022/11/22 02:19:39;;;;;;;28.20;6.47;;;;;;;12.30;99.14;99728.13;1775649;80;20995;-87
2022/11/22 02:22:31;;;;;;;18.25;5.30;;;;;;;12.31;99.18;99736.84;1758324;80;21838;-87
2022/11/22 02:25:07;;;;;;;21.17;4.87;;;;;;;12.30;99.33;99728.13;1749277;80;21395;-88
2022/11/22 02:27:34;;;;;;;25.82;5.12;;;;;;;12.29;99.27;99740.07;1774538;80;21485;-86
2022/11/22 02:30:00;;;;;;;15.88;4.67;;;;;;;12.26;99.15;99739.84;1775475;80;20991;-87
2022/11/22 02:32:27;;;;;;;17.17;5.05;;;;;;;12.27;98.97;99745.93;1776003;80;20884;-85
2022/11/22 02:34:53;;;;;;;16.62;4.25;;;;;;;12.26;98.95;99742.96;1775817;80;21622;-85
2022/11/22 02:37:24;;;;;;;18.92;5.00;;;;;;;12.25;98.90;99734.25;1776010;80;20932;-84
2022/11/22 02:39:55;;;;;;;20.08;5.75;;;;;;;12.25;98.79;99734.25;1775739;80;20968;-86
2022/11/22 02:42:24;;;;;;;16.17;4.30;;;;;;;12.27;98.72;99739.36;1775213;80;20917;-85
2022/11/22 02:44:51;;;;;;;11.80;4.58;;;;;;;12.26;98.21;99739.02;1775531;80;21018;-86
2022/11/22 02:47:17;;;;;;;8.50;3.02;;;;;;;12.22;97.11;99741.05;1775563;80;21176;-87
2022/11/22 02:49:44;;;;;;;6.85;3.00;;;;;;;12.17;95.03;99732.70;1775517;80;20905;-86
2022/11/22 02:52:17;;;;;;;5.60;2.75;;;;;;;12.12;94.26;99750.66;1775703;80;20932;-84
2022/11/22 02:54:45;;;;;;;5.22;3.40;;;;;;;12.08;93.45;99747.91;1775686;80;20964;-86
2022/11/22 02:57:13;;;;;;;6.85;3.58;;;;;;;12.03;93.05;99747.80;1778488;79;20936;-86
2022/11/22 02:59:40;;;;;;;7.42;3.15;;;;;;;11.99;92.75;99749.00;1777238;80;21110;-86
2022/11/22 03:02:07;;;;;;;8.33;4.65;;;;;;;11.95;92.67;99748.87;1776098;80;20972;-85
2022/11/22 03:04:34;;;;;;;22.07;16.05;;;;;;;11.93;92.61;99751.27;1775940;80;21448;-86
2022/11/22 03:07:01;;;;;;;8.18;3.80;;;;;;;11.91;92.66;99761.89;1775573;80;20948;-86
2022/11/22 03:09:29;;;;;;;9.00;4.33;;;;;;;11.89;92.72;99755.09;1779342;80;21011;-84
2022/11/22 03:11:57;;;;;;;7.30;4.87;;;;;;;11.87;92.76;99759.61;1784718;80;20936;-85
2022/11/22 03:14:24;;;;;;;8.43;5.83;;;;;;;11.81;92.56;99755.69;1783852;80;20976;-85
2022/11/22 03:16:50;;;;;;;11.30;6.25;;;;;;;11.76;92.28;99763.94;1783816;80;20909;-86
2022/11/22 03:19:18;;;;;;;7.53;5.22;;;;;;;11.66;91.67;99766.91;1783758;80;21433;-86
2022/11/22 03:21:47;;;;;;;7.35;6.50;;;;;;;11.55;90.98;99776.94;1783950;80;20884;-87
2022/11/22 03:24:13;;;;;;;7.72;6.28;;;;;;;11.39;91.07;99771.20;1783907;80;21763;-85
2022/11/22 03:26:40;;;;;;;7.67;6.03;;;;;;;11.27;91.19;99776.08;1784153;80;20926;-84
2022/11/22 03:29:07;;;;;;;7.10;6.25;;;;;;;11.18;91.34;99777.61;1784889;80;20880;-84
2022/11/22 03:31:35;;;;;;;9.80;6.62;;;;;;;11.08;91.58;99769.61;1784281;80;20904;-86
2022/11/22 03:34:01;;;;;;;9.30;7.65;;;;;;;11.01;91.70;99759.71;1783853;80;20999;-86
2022/11/22 03:36:28;;;;;;;9.25;7.55;;;;;;;10.93;91.66;99774.70;1783826;80;21309;-84
2022/11/22 03:38:54;;;;;;;10.78;7.20;;;;;;;10.85;91.53;99778.36;1784348;80;20923;-85
2022/11/22 03:41:21;;;;;;;10.03;7.53;;;;;;;10.75;91.56;99773.81;1784466;80;21014;-86
2022/11/22 03:43:48;;;;;;;7.35;6.60;;;;;;;10.66;91.52;99773.19;1784355;80;20935;-85
2022/11/22 03:46:16;;;;;;;9.38;7.17;;;;;;;10.57;91.36;99774.70;1784497;80;20896;-86
2022/11/22 03:48:42;;;;;;;8.20;5.58;;;;;;;10.48;91.47;99783.72;1783899;80;21163;-85
2022/11/22 03:51:09;;;;;;;10.60;7.28;;;;;;;10.39;91.17;99781.30;1783891;80;20852;-85
2022/11/22 03:53:38;;;;;;;13.13;6.50;;;;;;;10.26;90.98;99795.72;1784194;80;20900;-85
2022/11/22 03:56:05;;;;;;;7.12;6.20;;;;;;;10.16;90.87;99803.41;1784339;80;21409;-87
2022/11/22 03:58:32;;;;;;;9.13;6.17;;;;;;;10.07;90.37;99809.77;1784172;80;20904;-88
2022/11/22 04:00:59;;;;;;;8.78;5.87;;;;;;;9.98;90.11;99808.63;1784186;80;21157;-86
2022/11/22 04:03:25;;;;;;;6.67;5.97;;;;;;;9.86;89.97;99810.34;1784831;80;20880;-85
2022/11/22 04:05:52;;;;;;;9.60;6.00;;;;;;;9.79;90.15;99812.20;1785053;80;20979;-85
2022/11/22 04:08:19;;;;;;;8.50;6.50;;;;;;;9.70;90.20;99808.44;1784592;80;20935;-87
2022/11/22 04:10:50;;;;;;;9.28;8.25;;;;;;;9.61;90.28;99812.52;1780027;80;20861;-87
2022/11/22 04:13:18;;;;;;;17.87;14.58;;;;;;;9.54;90.44;99822.58;1776277;80;21268;-85
2022/11/22 04:15:44;;;;;;;9.48;6.40;;;;;;;9.46;90.30;99824.88;1775900;80;20976;-86
2022/11/22 04:18:13;;;;;;;9.85;6.67;;;;;;;9.34;89.99;99829.64;1777277;80;21031;-86
2022/11/22 04:23:27;;;;;;;17.85;12.60;;;;;;;9.01;89.72;99841.41;1776588;80;20896;-89
2022/11/22 04:25:54;;;;;;;9.88;6.90;;;;;;;8.88;89.58;99858.84;1776519;80;21473;-89
2022/11/22 04:28:24;;;;;;;8.28;6.45;;;;;;;8.76;89.66;99857.88;1776194;80;21357;-87
2022/11/22 04:33:40;;;;;;;6.37;5.72;;;;;;;8.57;89.22;99868.66;1775558;80;20936;-87
2022/11/22 04:36:08;;;;;;;7.75;6.95;;;;;;;8.40;89.21;99874.08;1775448;80;20952;-87
2022/11/22 04:38:35;;;;;;;8.15;6.05;;;;;;;8.29;89.57;99874.30;1775715;80;21152;-86
2022/11/22 04:41:01;;;;;;;8.95;6.30;;;;;;;8.21;89.94;99874.41;1775549;80;21034;-87
2022/11/22 04:46:14;;;;;;;10.48;7.65;;;;;;;8.10;89.70;99873.77;1775721;80;20936;-87
2022/11/22 04:48:41;;;;;;;9.75;8.28;;;;;;;8.03;89.65;99890.74;1775735;80;20983;-87
2022/11/22 04:53:55;;;;;;;12.18;9.80;;;;;;;7.88;89.30;99880.28;1775606;80;20944;-85
2022/11/22 04:56:22;;;;;;;8.93;7.35;;;;;;;7.80;89.12;99872.55;1776068;80;21501;-88
2022/11/22 04:58:54;;;;;;;12.30;8.98;;;;;;;7.72;88.96;99876.11;1775576;80;21374;-87
2022/11/22 05:01:17;;;;;;;8.25;7.37;;;;;;;7.65;88.66;99879.55;1775665;80;21378;-88
2022/11/22 05:03:44;;;;;;;7.53;6.35;;;;;;;7.56;88.28;99888.77;1775350;80;21284;-85
2022/11/22 05:06:13;;;;;;;12.75;8.60;;;;;;;7.46;88.15;99900.19;1775485;80;21425;-87
2022/11/22 05:08:41;;;;;;;12.75;7.75;;;;;;;7.37;88.14;99903.34;1775481;80;21508;-87
2022/11/22 05:11:09;;;;;;;6.72;5.20;;;;;;;7.30;88.03;99906.41;1780194;80;20860;-85
2022/11/22 05:13:40;;;;;;;7.25;6.22;;;;;;;7.17;86.97;99912.31;1784346;80;20849;-86
2022/11/22 05:16:10;;;;;;;10.13;5.35;;;;;;;7.08;86.74;99915.92;1784060;80;21139;-88
2022/11/22 05:18:37;;;;;;;11.83;6.53;;;;;;;6.98;86.67;99916.44;1784008;80;20885;-88
2022/11/22 05:21:07;;;;;;;7.00;6.30;;;;;;;6.94;86.73;99912.32;1783982;80;20983;-85
2022/11/22 05:25:05;;;;;;;9.55;7.53;;;;;;;6.91;86.99;99918.99;1854806;76;22630;-86
2022/11/22 05:27:38;;;;;;;9.90;7.25;;;;;;;6.80;87.18;99915.70;1793087;78;20880;-83
2022/11/22 05:30:09;;;;;;;6.95;5.55;;;;;;;6.76;87.26;99919.84;1824445;78;20880;-85
2022/11/22 05:32:48;;;;;;;6.78;5.42;;;;;;;6.72;87.35;99915.28;1823280;78;20884;-86
2022/11/22 05:35:17;;;;;;;5.95;5.45;;;;;;;6.68;87.10;99924.19;1822180;78;20887;-86
2022/11/22 05:37:50;;;;;;;6.05;5.45;;;;;;;6.57;86.83;99918.26;1822819;78;20879;-85
2022/11/22 05:40:17;;;;;;;6.25;4.75;;;;;;;6.48;86.85;99916.16;1824750;78;20883;-86
2022/11/22 05:42:44;;;;;;;5.78;4.92;;;;;;;6.39;87.06;99918.80;1824707;78;21193;-86
2022/11/22 05:45:11;;;;;;;9.88;5.05;;;;;;;6.36;87.07;99930.70;1822634;78;20929;-85
2022/11/22 05:47:39;;;;;;;5.70;4.72;;;;;;;6.33;87.10;99939.13;1817350;78;20891;-86
2022/11/22 05:50:08;;;;;;;5.15;4.12;;;;;;;6.29;87.16;99929.79;1822386;78;20899;-86
2022/11/22 05:52:34;;;;;;;5.90;4.22;;;;;;;6.28;87.25;99938.53;1822329;78;20911;-85
2022/11/22 05:55:03;;;;;;;4.30;3.90;;;;;;;6.26;86.88;99942.98;1822418;78;21186;-85
2022/11/22 05:57:31;;;;;;;4.62;3.67;;;;;;;6.19;86.32;99945.07;1822805;78;20923;-86
2022/11/22 06:00:02;;;;;;;4.05;3.75;;;;;;;6.15;85.94;99949.58;1822752;78;20927;-84
2022/11/22 06:02:31;;;;;;;2.70;2.50;;;;;;;6.08;85.52;99952.60;1822155;78;20955;-84
2022/11/22 06:04:58;;;;;;;3.52;3.22;;;;;;;6.02;85.23;99964.16;1824087;78;20852;-87
2022/11/22 06:07:25;;;;;;;4.15;3.67;;;;;;;5.95;85.01;99957.13;1822529;78;21276;-86
2022/11/22 06:09:52;;;;;;;3.67;3.35;;;;;;;5.88;84.95;99957.50;1822838;78;20927;-86
2022/11/22 06:12:18;;;;;;;5.12;4.20;;;;;;;5.83;84.89;99959.51;1790744;78;20887;-85
2022/11/22 06:14:45;;;;;;;4.12;3.80;;;;;;;5.82;85.02;99966.45;1822327;78;20970;-86
2022/11/22 06:17:11;;;;;;;3.83;3.52;;;;;;;5.79;84.88;99963.55;1822222;78;20978;-87
2022/11/22 06:19:39;;;;;;;4.97;3.95;;;;;;;5.79;85.15;99967.45;1822353;78;21151;-85
2022/11/22 06:22:05;;;;;;;4.92;4.53;;;;;;;5.84;85.36;99961.17;1822344;78;20989;-86
2022/11/22 06:24:32;;;;;;;4.00;3.67;;;;;;;5.85;85.33;99971.52;1822007;78;21373;-86
2022/11/22 06:26:59;;;;;;;5.05;4.55;;;;;;;5.85;85.28;99972.81;1822089;78;20860;-85
2022/11/22 06:29:26;;;;;;;4.12;3.72;;;;;;;5.81;85.09;99974.72;1822968;78;20919;-85
2022/11/22 06:31:53;;;;;;;4.65;4.25;;;;;;;5.78;84.75;99983.13;1822610;78;21158;-86
2022/11/22 06:34:24;;;;;;;4.35;3.95;;;;;;;5.73;84.81;99991.16;1822170;78;20971;-86
2022/11/22 06:36:51;;;;;;;4.17;3.85;;;;;;;5.71;84.87;100001.27;1821695;78;20872;-86
2022/11/22 06:39:18;;;;;;;5.03;4.58;;;;;;;5.69;84.67;99989.66;1821563;78;20864;-87
2022/11/22 06:41:45;;;;;;;5.00;4.45;;;;;;;5.67;84.57;100004.94;1821485;78;20891;-87
2022/11/22 06:44:11;;;;;;;3.90;3.60;;;;;;;5.67;84.50;100009.70;1821591;78;21493;-87
2022/11/22 06:46:39;;;;;;;3.80;3.50;;;;;;;5.64;84.45;100000.73;1821582;78;20903;-87
2022/11/22 06:49:06;;;;;;;2.72;2.52;;;;;;;5.63;84.11;99993.86;1821702;78;20888;-84
2022/11/22 06:51:32;;;;;;;4.22;3.20;;;;;;;5.61;83.90;99978.32;1822467;78;20963;-87
2022/11/22 06:54:00;;;;;;;3.00;2.80;;;;;;;5.59;83.71;99985.36;1823709;78;21080;-87
2022/11/22 06:56:37;;;;;;;3.75;3.42;;;;;;;5.60;83.64;99976.66;1822494;78;21153;-87
2022/11/22 06:59:04;;;;;;;6.03;4.85;;;;;;;5.60;83.51;99986.19;1822167;78;20904;-86
2022/11/22 07:01:31;;;;;;;4.60;4.20;;;;;;;5.57;83.43;99985.89;1822817;78;20879;-87
2022/11/22 07:04:00;;;;;;;4.10;3.80;;;;;;;5.58;83.63;99999.73;1824697;78;20960;-88
2022/11/22 07:06:31;;;;;;;6.08;5.47;;;;;;;5.58;83.80;100006.23;1823503;78;20899;-90
2022/11/22 07:09:00;;;;;;;5.70;5.10;;;;;;;5.58;83.85;100023.14;1822324;78;21113;-89
2022/11/22 07:11:29;;;;;;;5.15;4.65;;;;;;;5.58;84.16;100010.13;1821353;78;20919;-89
2022/11/22 07:13:56;;;;;;;4.47;4.05;;;;;;;5.56;84.24;100002.89;1821962;78;20922;-90
2022/11/22 07:16:24;;;;;;;3.92;3.58;;;;;;;5.53;83.91;100002.55;1821995;78;20887;-87
2022/11/22 07:18:51;;;;;;;3.75;3.45;;;;;;;5.51;83.69;100015.25;1822870;78;21440;-88
2022/11/22 07:21:23;;;;;;;7.58;6.03;;;;;;;5.46;83.28;100015.48;1822433;78;21125;-89
2022/11/22 07:23:52;;;;;;;10.90;8.80;;;;;;;5.46;83.00;100010.28;1822705;78;21482;-88
2022/11/22 07:26:20;;;;;;;12.18;9.75;;;;;;;5.48;83.01;99995.45;1825555;78;20887;-89
2022/11/22 07:28:47;;;;;;;15.58;11.00;;;;;;;5.52;82.96;99999.59;1825719;78;20930;-89
2022/11/22 07:31:15;;;;;;;16.07;12.05;;;;;;;5.53;82.57;99995.22;1825948;78;21302;-86
2022/11/22 07:33:42;;;;;;;17.40;12.95;;;;;;;5.51;82.34;99985.34;1825858;78;22288;-89
2022/11/22 07:36:19;;;;;;;15.28;11.33;;;;;;;5.52;82.43;99994.85;1826171;78;20856;-88
2022/11/22 07:38:51;;;;;;;18.92;13.90;;;;;;;5.53;82.45;99998.66;1825982;78;20926;-89
2022/11/22 07:41:16;;;;;;;18.00;12.28;;;;;;;5.53;82.29;99999.13;1824527;78;20903;-86
2022/11/22 07:43:43;;;;;;;20.27;13.43;;;;;;;5.54;82.31;99999.05;1825690;78;20978;-88
2022/11/22 07:46:22;;;;;;;23.38;14.78;;;;;;;5.54;82.18;99996.45;1825809;78;21175;-90
2022/11/22 07:48:49;;;;;;;19.23;13.80;;;;;;;5.53;82.28;99993.92;1826544;78;20860;-89
2022/11/22 07:51:16;;;;;;;18.60;12.95;;;;;;;5.50;82.45;100004.02;1798527;78;20872;-90
2022/11/22 07:53:43;;;;;;;20.55;13.58;;;;;;;5.51;82.47;99999.66;1825689;78;20923;-89
2022/11/22 07:56:09;;;;;;;16.62;12.15;;;;;;;5.52;82.84;100004.79;1825830;78;20918;-88
2022/11/22 07:58:37;;;;;;;20.70;14.90;;;;;;;5.53;82.86;100016.86;1825268;78;21104;-89
2022/11/22 08:01:51;;;;;;;19.45;14.35;;;;;;;5.54;82.64;100013.83;1826679;78;21254;-87
2022/11/22 08:04:22;;;;;;;16.65;13.32;;;;;;;5.51;82.45;100013.95;1823299;78;20963;-89
2022/11/22 08:06:49;;;;;;;18.17;14.28;;;;;;;5.47;82.43;100008.52;1826143;78;20938;-88
2022/11/22 08:09:16;;;;;;;17.10;13.35;;;;;;;5.45;82.31;99994.75;1798837;78;20864;-89
2022/11/22 08:11:44;;;;;;;20.32;14.95;;;;;;;5.45;82.14;99997.34;1798274;78;20887;-87
2022/11/22 08:14:11;;;;;;;19.10;15.03;;;;;;;5.40;81.85;99990.64;1825687;78;20950;-87
2022/11/22 08:16:38;;;;;;;19.77;14.75;;;;;;;5.36;81.72;100002.56;1825233;78;20946;-88
2022/11/22 08:19:05;;;;;;;21.85;15.15;;;;;;;5.35;82.00;100007.36;1825201;78;21408;-89
2022/11/22 08:21:33;;;;;;;23.52;16.62;;;;;;;5.42;81.99;100026.11;1825432;78;20910;-90
2022/11/22 08:24:02;;;;;;;23.10;15.88;;;;;;;5.47;81.52;100030.62;1797369;78;22328;-88
2022/11/22 08:26:31;;;;;;;24.50;15.10;;;;;;;5.47;81.17;100034.09;1825039;78;20840;-87
2022/11/22 08:28:57;;;;;;;23.40;16.17;;;;;;;5.47;81.06;100028.02;1824725;77;20912;-90
2022/11/22 08:31:26;;;;;;;24.55;15.30;;;;;;;5.47;81.17;100030.19;1791177;78;20940;-87
2022/11/22 08:33:53;;;;;;;16.37;11.60;;;;;;;5.53;81.08;100025.12;1792236;78;20951;-86
2022/11/22 08:36:20;;;;;;;26.60;11.70;;;;;;;5.58;80.86;100030.94;1824142;78;23039;-87
2022/11/22 08:38:47;;;;;;;19.35;12.45;;;;;;;5.59;80.64;100020.47;1821955;78;20860;-89
2022/11/22 08:41:14;;;;;;;18.37;11.00;;;;;;;5.58;80.41;100021.84;1822073;78;21436;-88
2022/11/22 08:43:43;;;;;;;13.60;9.33;;;;;;;5.59;80.52;100028.27;1816539;78;20946;-87
2022/11/22 08:46:10;;;;;;;20.40;10.88;;;;;;;5.59;80.62;100021.77;1820841;78;21010;-88
2022/11/22 08:48:37;;;;;;;20.17;13.50;;;;;;;5.60;80.57;100027.37;1821810;78;21141;-87
2022/11/22 08:51:06;;;;;;;15.32;10.72;;;;;;;5.59;80.65;100015.27;1790397;78;20970;-87
2022/11/22 08:53:41;;;;;;;18.90;10.58;;;;;;;5.56;80.48;100010.23;1823898;78;20931;-87
2022/11/22 08:56:15;;;;;;;11.83;9.18;;;;;;;5.52;80.55;100010.45;1823166;78;21017;-86
2022/11/22 08:58:44;;;;;;;14.70;10.38;;;;;;;5.48;80.61;100008.92;1822036;78;20935;-87
2022/11/22 09:01:13;;;;;;;11.08;9.63;;;;;;;5.46;80.73;100006.38;1821900;78;21199;-88
2022/11/22 09:03:41;;;;;;;11.03;9.88;;;;;;;5.42;80.68;100000.94;1821789;78;20974;-89
2022/11/22 09:06:15;;;;;;;13.13;9.70;;;;;;;5.39;80.73;100003.70;1801982;78;20912;-88
2022/11/22 09:08:44;;;;;;;11.28;8.70;;;;;;;5.38;81.04;100005.47;1790052;80;20935;-87
2022/11/22 09:11:17;;;;;;;11.57;8.13;;;;;;;5.42;80.88;99994.91;1790059;79;21464;-88
2022/11/22 09:13:47;;;;;;;14.23;9.08;;;;;;;5.40;80.90;99993.23;1790760;80;21396;-86
2022/11/22 09:16:17;;;;;;;10.48;7.50;;;;;;;5.40;81.04;99975.03;1770602;80;20907;-86
2022/11/22 09:18:46;;;;;;;23.18;10.13;;;;;;;5.41;81.10;99978.47;1792242;79;20935;-86
2022/11/22 09:21:18;;;;;;;13.35;9.60;;;;;;;5.38;80.81;99986.41;1792054;79;20883;-86
2022/11/22 09:23:53;;;;;;;9.63;8.63;;;;;;;5.31;80.94;100000.16;1791367;80;20876;-87
2022/11/22 09:26:24;;;;;;;15.48;10.82;;;;;;;5.23;81.15;100011.87;1795700;79;21223;-86
2022/11/22 09:28:56;;;;;;;16.67;12.28;;;;;;;5.19;81.40;100013.30;1795655;80;20935;-86
2022/11/22 09:31:25;;;;;;;21.77;14.80;;;;;;;5.18;81.40;100013.39;1795741;79;20943;-87
2022/11/22 09:33:53;;;;;;;26.05;19.67;;;;;;;5.18;81.43;100019.89;1764283;80;21471;-87
2022/11/22 09:36:22;;;;;;;35.60;21.60;;;;;;;5.14;81.53;100015.28;1795168;79;21483;-86
2022/11/22 09:38:50;;;;;;;38.83;24.67;;;;;;;5.14;81.92;100012.68;1795252;79;21149;-87
2022/11/22 09:41:38;;;;;;;40.03;24.37;;;;;;;5.15;81.76;100007.84;1794966;80;20887;-87
2022/11/22 09:44:30;;;;;;;36.03;24.75;;;;;;;5.13;81.57;99996.68;1795037;79;20859;-87
2022/11/22 09:47:12;;;;;;;37.03;21.50;;;;;;;5.09;81.71;99997.77;1795185;79;20903;-87
2022/11/22 09:50:08;;;;;;;29.48;19.42;;;;;;;5.07;81.81;100000.03;1797983;79;20985;-87
2022/11/22 09:52:52;;;;;;;23.62;17.45;;;;;;;5.04;81.95;100001.02;1796897;80;21644;-89
2022/11/22 09:55:27;;;;;;;28.32;17.80;;;;;;;5.02;81.97;100002.02;1794388;79;21373;-87
2022/11/22 09:58:32;;;;;;;24.90;16.30;;;;;;;4.98;82.09;99994.37;1796198;80;20985;-85
2022/11/22 10:01:28;;;;;;;16.57;10.30;;;;;;;4.99;82.18;99993.45;1795766;80;20915;-86
2022/11/22 10:04:06;;;;;;;9.28;7.37;;;;;;;4.96;81.83;99992.30;1795586;79;20880;-87
2022/11/22 10:06:39;;;;;;;8.25;7.45;;;;;;;4.89;81.89;99998.70;1795229;80;21556;-86
2022/11/22 10:09:34;;;;;;;7.60;6.33;;;;;;;4.82;81.76;99994.68;1767664;80;20891;-87
2022/11/22 10:12:35;;;;;;;13.35;8.98;;;;;;;4.75;82.15;100000.62;1796060;80;21353;-86
2022/11/22 10:15:32;;;;;;;12.58;10.72;;;;;;;4.71;82.03;99993.03;1795035;79;20907;-87
2022/11/22 10:18:10;;;;;;;;;;;;;;;4.67;82.56;100001.88;1784369;79;20856;-86
2022/11/22 10:20:40;;;;;;;22.13;16.30;;;;;;;4.70;82.60;99994.80;1795685;79;21316;-86
2022/11/22 10:23:15;;;;;;;19.62;14.80;;;;;;;4.69;82.45;99998.75;1795228;80;21691;-86
2022/11/22 10:25:50;;;;;;;21.30;14.07;;;;;;;4.69;82.49;99994.86;1794753;80;20970;-87
2022/11/22 10:28:34;;;;;;;27.05;19.40;;;;;;;4.70;82.48;100001.76;1795202;79;21419;-87
2022/11/22 10:31:18;;;;;;;17.70;15.48;;;;;;;4.73;82.57;100005.50;1796088;79;21408;-87
2022/11/22 10:34:06;;;;;;;18.07;12.75;;;;;;;4.74;82.30;100001.55;1795465;79;20922;-88
2022/11/22 10:36:57;;;;;;;10.85;8.85;;;;;;;4.73;82.03;99997.70;1795422;79;20891;-87
2022/11/22 10:40:06;;;;;;;6.40;5.90;;;;;;;4.74;81.83;100000.70;1795952;80;20982;-88
2022/11/22 10:43:08;;;;;;;6.42;5.90;;;;;;;4.73;81.82;99987.32;1795951;79;20939;-85
2022/11/22 10:45:48;;;;;;;5.12;4.72;;;;;;;4.73;81.87;99997.70;1746636;81;20895;-86
2022/11/22 10:48:26;;;;;;;7.22;6.00;;;;;;;4.75;81.92;100004.97;1791476;80;21000;-85
2022/11/22 10:51:18;;;;;;;6.60;6.00;;;;;;;4.73;81.92;100013.30;1794712;80;21045;-87
2022/11/22 10:54:11;;;;;;;5.85;5.35;;;;;;;4.71;81.99;100004.72;1795111;79;20888;-89
2022/11/22 10:56:52;;;;;;;7.55;6.62;;;;;;;4.72;82.11;100013.75;1795749;79;20923;-87
2022/11/22 10:59:42;;;;;;;7.20;6.67;;;;;;;4.74;82.37;100013.23;1795092;79;21037;-88
2022/11/22 11:02:32;;;;;;;6.42;5.87;;;;;;;4.79;82.48;100010.42;1795226;80;21144;-87
2022/11/22 11:05:05;;;;;;;6.85;6.35;;;;;;;4.84;82.27;100007.14;1795516;79;20950;-85
2022/11/22 11:07:32;;;;;;;6.85;6.30;;;;;;;4.84;82.18;99999.81;1795131;79;20927;-87
2022/11/22 11:10:02;;;;;;;7.00;6.40;;;;;;;4.80;81.94;100019.05;1796737;79;22427;-85
2022/11/22 11:12:47;;;;;;;8.00;7.20;;;;;;;4.76;82.20;100027.45;1797303;79;20867;-88
2022/11/22 11:15:37;;;;;;;7.55;6.67;;;;;;;4.72;82.42;100029.80;1786726;79;21243;-85
2022/11/22 11:18:07;;;;;;;7.92;6.95;;;;;;;4.71;82.62;100021.61;1794497;79;20943;-86
2022/11/22 11:20:37;;;;;;;7.72;7.03;;;;;;;4.69;82.31;100009.14;1766548;80;21036;-86
2022/11/22 11:23:10;;;;;;;6.70;6.00;;;;;;;4.63;82.33;100015.94;1795158;79;20907;-86
2022/11/22 11:25:42;;;;;;;7.28;5.90;;;;;;;4.55;82.30;100013.67;1795338;79;20859;-86
2022/11/22 11:28:23;;;;;;;10.30;7.17;;;;;;;4.51;82.36;100016.87;1795034;79;20884;-85
2022/11/22 11:31:09;;;;;;;8.15;7.35;;;;;;;4.49;82.42;100007.02;1794332;79;20923;-86
2022/11/22 11:33:37;;;;;;;6.85;6.22;;;;;;;4.49;82.21;100004.84;1795381;79;20883;-86
2022/11/22 11:36:20;;;;;;;5.20;4.65;;;;;;;4.51;82.38;100012.12;1794990;79;21051;-87
2022/11/22 11:38:56;;;;;;;4.55;4.15;;;;;;;4.53;82.22;100012.89;1795386;79;20891;-87
2022/11/22 11:41:33;;;;;;;5.37;4.87;;;;;;;4.52;82.27;100012.06;1795893;80;22178;-88
2022/11/22 11:44:02;;;;;;;6.45;5.80;;;;;;;4.50;81.99;100009.98;1795315;79;20970;-86
2022/11/22 11:46:44;;;;;;;5.70;5.15;;;;;;;4.44;81.99;100002.46;1795213;79;21345;-87
2022/11/22 11:49:17;;;;;;;6.08;5.42;;;;;;;4.41;82.22;100000.48;1795096;79;20993;-86
2022/11/22 11:51:54;;;;;;;5.12;4.72;;;;;;;4.41;82.59;100006.50;1795369;79;21400;-86
2022/11/22 11:54:45;;;;;;;5.50;5.00;;;;;;;4.43;82.63;100006.45;1795155;79;21960;-85
2022/11/22 11:57:23;;;;;;;6.37;5.78;;;;;;;4.45;82.69;100002.87;1795396;80;20918;-86
2022/11/22 11:59:50;;;;;;;5.25;4.80;;;;;;;4.51;82.70;100003.03;1796174;80;21002;-86